sensor_id;sensor_type;location;lat;lon;timestamp;P1;durP1;ratioP1;P2;durP2;ratioP2
78873;SDS011;68250;43.514;1.494;2023-04-24T00:00:53;6.65;;;2.70;;
78873;SDS011;68250;43.514;1.494;2023-04-24T00:03:25;6.33;;;2.63;;
78873;SDS011;68250;43.514;1.494;2023-04-24T00:05:52;9.55;;;2.80;;
78873;SDS011;68250;43.514;1.494;2023-04-24T00:08:18;6.78;;;2.65;;
78873;SDS011;68250;43.514;1.494;2023-04-24T00:10:44;6.87;;;2.40;;
78873;SDS011;68250;43.514;1.494;2023-04-24T00:13:10;6.68;;;2.72;;
78873;SDS011;68250;43.514;1.494;2023-04-24T00:15:35;7.83;;;2.70;;
78873;SDS011;68250;43.514;1.494;2023-04-24T00:18:01;6.75;;;2.67;;
78873;SDS011;68250;43.514;1.494;2023-04-24T00:20:27;7.93;;;2.63;;
78873;SDS011;68250;43.514;1.494;2023-04-24T00:22:57;7.35;;;2.65;;
78873;SDS011;68250;43.514;1.494;2023-04-24T00:25:23;8.02;;;3.17;;
78873;SDS011;68250;43.514;1.494;2023-04-24T00:27:48;7.60;;;2.60;;
78873;SDS011;68250;43.514;1.494;2023-04-24T00:30:14;7.37;;;2.60;;
78873;SDS011;68250;43.514;1.494;2023-04-24T00:32:40;9.15;;;2.85;;
78873;SDS011;68250;43.514;1.494;2023-04-24T00:35:05;7.13;;;2.60;;
78873;SDS011;68250;43.514;1.494;2023-04-24T00:37:31;6.95;;;2.40;;
78873;SDS011;68250;43.514;1.494;2023-04-24T00:39:57;6.50;;;2.20;;
78873;SDS011;68250;43.514;1.494;2023-04-24T00:42:23;8.65;;;2.45;;
78873;SDS011;68250;43.514;1.494;2023-04-24T00:44:49;7.13;;;2.13;;
78873;SDS011;68250;43.514;1.494;2023-04-24T00:47:14;12.40;;;2.60;;
78873;SDS011;68250;43.514;1.494;2023-04-24T00:49:40;6.20;;;2.28;;
78873;SDS011;68250;43.514;1.494;2023-04-24T00:52:06;7.63;;;2.40;;
78873;SDS011;68250;43.514;1.494;2023-04-24T00:54:34;6.35;;;2.33;;
78873;SDS011;68250;43.514;1.494;2023-04-24T00:57:00;8.20;;;2.28;;
78873;SDS011;68250;43.514;1.494;2023-04-24T00:59:27;10.63;;;2.30;;
78873;SDS011;68250;43.514;1.494;2023-04-24T01:01:52;8.03;;;2.00;;
78873;SDS011;68250;43.514;1.494;2023-04-24T01:04:18;6.73;;;1.93;;
78873;SDS011;68250;43.514;1.494;2023-04-24T01:06:44;5.05;;;1.88;;
78873;SDS011;68250;43.514;1.494;2023-04-24T01:09:10;5.90;;;1.88;;
78873;SDS011;68250;43.514;1.494;2023-04-24T01:11:37;10.32;;;2.30;;
78873;SDS011;68250;43.514;1.494;2023-04-24T01:14:03;6.35;;;1.73;;
78873;SDS011;68250;43.514;1.494;2023-04-24T01:16:29;9.60;;;1.95;;
78873;SDS011;68250;43.514;1.494;2023-04-24T01:18:55;6.50;;;1.70;;
78873;SDS011;68250;43.514;1.494;2023-04-24T01:21:20;9.27;;;1.85;;
78873;SDS011;68250;43.514;1.494;2023-04-24T01:23:46;7.03;;;1.80;;
78873;SDS011;68250;43.514;1.494;2023-04-24T01:26:13;6.40;;;1.80;;
78873;SDS011;68250;43.514;1.494;2023-04-24T01:28:39;7.68;;;1.98;;
78873;SDS011;68250;43.514;1.494;2023-04-24T01:31:05;7.87;;;1.73;;
78873;SDS011;68250;43.514;1.494;2023-04-24T01:33:31;8.45;;;2.00;;
78873;SDS011;68250;43.514;1.494;2023-04-24T01:35:57;5.85;;;1.70;;
78873;SDS011;68250;43.514;1.494;2023-04-24T01:38:22;7.55;;;1.77;;
78873;SDS011;68250;43.514;1.494;2023-04-24T01:40:48;6.50;;;1.73;;
78873;SDS011;68250;43.514;1.494;2023-04-24T01:43:15;5.22;;;1.40;;
78873;SDS011;68250;43.514;1.494;2023-04-24T01:45:40;7.65;;;1.60;;
78873;SDS011;68250;43.514;1.494;2023-04-24T01:48:06;6.67;;;1.80;;
78873;SDS011;68250;43.514;1.494;2023-04-24T01:50:31;6.30;;;1.60;;
78873;SDS011;68250;43.514;1.494;2023-04-24T01:52:57;8.18;;;1.77;;
78873;SDS011;68250;43.514;1.494;2023-04-24T01:55:23;8.80;;;1.50;;
78873;SDS011;68250;43.514;1.494;2023-04-24T01:57:48;6.25;;;1.70;;
78873;SDS011;68250;43.514;1.494;2023-04-24T02:00:14;8.40;;;1.60;;
78873;SDS011;68250;43.514;1.494;2023-04-24T02:02:40;7.47;;;1.88;;
78873;SDS011;68250;43.514;1.494;2023-04-24T02:05:06;6.15;;;1.63;;
78873;SDS011;68250;43.514;1.494;2023-04-24T02:07:32;11.55;;;2.08;;
78873;SDS011;68250;43.514;1.494;2023-04-24T02:09:58;6.75;;;1.70;;
78873;SDS011;68250;43.514;1.494;2023-04-24T02:12:24;8.67;;;1.90;;
78873;SDS011;68250;43.514;1.494;2023-04-24T02:14:50;9.37;;;1.80;;
78873;SDS011;68250;43.514;1.494;2023-04-24T02:17:16;10.45;;;2.15;;
78873;SDS011;68250;43.514;1.494;2023-04-24T02:19:43;7.00;;;1.65;;
78873;SDS011;68250;43.514;1.494;2023-04-24T02:22:09;6.23;;;1.63;;
78873;SDS011;68250;43.514;1.494;2023-04-24T02:24:35;7.25;;;1.60;;
78873;SDS011;68250;43.514;1.494;2023-04-24T02:27:02;4.70;;;1.55;;
78873;SDS011;68250;43.514;1.494;2023-04-24T02:29:28;6.97;;;1.63;;
78873;SDS011;68250;43.514;1.494;2023-04-24T02:31:53;7.60;;;1.67;;
78873;SDS011;68250;43.514;1.494;2023-04-24T02:34:19;6.60;;;1.43;;
78873;SDS011;68250;43.514;1.494;2023-04-24T02:36:44;7.72;;;1.50;;
78873;SDS011;68250;43.514;1.494;2023-04-24T02:39:10;7.30;;;1.70;;
78873;SDS011;68250;43.514;1.494;2023-04-24T02:41:35;7.27;;;1.70;;
78873;SDS011;68250;43.514;1.494;2023-04-24T02:44:01;5.53;;;1.30;;
78873;SDS011;68250;43.514;1.494;2023-04-24T02:46:26;6.63;;;1.50;;
78873;SDS011;68250;43.514;1.494;2023-04-24T02:48:52;5.10;;;1.20;;
78873;SDS011;68250;43.514;1.494;2023-04-24T02:51:17;7.05;;;1.50;;
78873;SDS011;68250;43.514;1.494;2023-04-24T02:53:43;6.93;;;1.30;;
78873;SDS011;68250;43.514;1.494;2023-04-24T02:56:09;7.53;;;1.50;;
78873;SDS011;68250;43.514;1.494;2023-04-24T02:58:37;8.60;;;1.73;;
78873;SDS011;68250;43.514;1.494;2023-04-24T03:01:03;6.07;;;1.50;;
78873;SDS011;68250;43.514;1.494;2023-04-24T03:03:28;8.18;;;1.40;;
78873;SDS011;68250;43.514;1.494;2023-04-24T03:05:54;7.00;;;1.25;;
78873;SDS011;68250;43.514;1.494;2023-04-24T03:08:22;6.43;;;1.40;;
78873;SDS011;68250;43.514;1.494;2023-04-24T03:10:47;8.52;;;1.33;;
78873;SDS011;68250;43.514;1.494;2023-04-24T03:13:13;10.90;;;1.30;;
78873;SDS011;68250;43.514;1.494;2023-04-24T03:15:39;5.63;;;1.25;;
78873;SDS011;68250;43.514;1.494;2023-04-24T03:18:04;8.93;;;1.63;;
78873;SDS011;68250;43.514;1.494;2023-04-24T03:20:30;9.93;;;1.40;;
78873;SDS011;68250;43.514;1.494;2023-04-24T03:22:55;7.20;;;1.38;;
78873;SDS011;68250;43.514;1.494;2023-04-24T03:25:22;7.55;;;1.35;;
78873;SDS011;68250;43.514;1.494;2023-04-24T03:27:47;6.80;;;1.15;;
78873;SDS011;68250;43.514;1.494;2023-04-24T03:30:13;8.80;;;1.10;;
78873;SDS011;68250;43.514;1.494;2023-04-24T03:32:38;5.47;;;1.05;;
78873;SDS011;68250;43.514;1.494;2023-04-24T03:35:05;8.80;;;1.20;;
78873;SDS011;68250;43.514;1.494;2023-04-24T03:37:32;7.15;;;1.20;;
78873;SDS011;68250;43.514;1.494;2023-04-24T03:39:58;6.43;;;1.23;;
78873;SDS011;68250;43.514;1.494;2023-04-24T03:42:23;5.97;;;1.20;;
78873;SDS011;68250;43.514;1.494;2023-04-24T03:44:49;6.47;;;1.10;;
78873;SDS011;68250;43.514;1.494;2023-04-24T03:47:14;6.00;;;1.57;;
78873;SDS011;68250;43.514;1.494;2023-04-24T03:49:40;7.80;;;1.30;;
78873;SDS011;68250;43.514;1.494;2023-04-24T03:52:05;6.22;;;1.10;;
78873;SDS011;68250;43.514;1.494;2023-04-24T03:54:31;7.33;;;1.43;;
78873;SDS011;68250;43.514;1.494;2023-04-24T03:56:56;8.27;;;1.20;;
78873;SDS011;68250;43.514;1.494;2023-04-24T03:59:22;8.43;;;1.27;;
78873;SDS011;68250;43.514;1.494;2023-04-24T04:01:48;11.23;;;1.03;;
78873;SDS011;68250;43.514;1.494;2023-04-24T04:04:13;7.13;;;1.27;;
78873;SDS011;68250;43.514;1.494;2023-04-24T04:06:39;7.93;;;1.33;;
78873;SDS011;68250;43.514;1.494;2023-04-24T04:09:05;9.38;;;1.25;;
78873;SDS011;68250;43.514;1.494;2023-04-24T04:11:30;6.43;;;1.10;;
78873;SDS011;68250;43.514;1.494;2023-04-24T04:13:56;8.83;;;1.47;;
78873;SDS011;68250;43.514;1.494;2023-04-24T04:16:22;8.13;;;0.98;;
78873;SDS011;68250;43.514;1.494;2023-04-24T04:18:48;7.78;;;1.27;;
78873;SDS011;68250;43.514;1.494;2023-04-24T04:21:14;8.05;;;1.20;;
78873;SDS011;68250;43.514;1.494;2023-04-24T04:23:39;7.60;;;1.38;;
78873;SDS011;68250;43.514;1.494;2023-04-24T04:26:05;7.77;;;1.00;;
78873;SDS011;68250;43.514;1.494;2023-04-24T04:28:31;10.80;;;1.33;;
78873;SDS011;68250;43.514;1.494;2023-04-24T04:30:57;7.43;;;1.10;;
78873;SDS011;68250;43.514;1.494;2023-04-24T04:33:24;7.97;;;1.00;;
78873;SDS011;68250;43.514;1.494;2023-04-24T04:35:50;6.25;;;1.00;;
78873;SDS011;68250;43.514;1.494;2023-04-24T04:38:21;5.78;;;0.95;;
78873;SDS011;68250;43.514;1.494;2023-04-24T04:40:48;6.18;;;1.00;;
78873;SDS011;68250;43.514;1.494;2023-04-24T04:43:13;6.87;;;0.90;;
78873;SDS011;68250;43.514;1.494;2023-04-24T04:45:42;7.28;;;1.20;;
78873;SDS011;68250;43.514;1.494;2023-04-24T04:48:08;11.82;;;1.40;;
78873;SDS011;68250;43.514;1.494;2023-04-24T04:50:37;7.65;;;1.20;;
78873;SDS011;68250;43.514;1.494;2023-04-24T04:53:03;6.93;;;1.20;;
78873;SDS011;68250;43.514;1.494;2023-04-24T04:55:28;5.45;;;1.10;;
78873;SDS011;68250;43.514;1.494;2023-04-24T04:57:54;6.67;;;1.17;;
78873;SDS011;68250;43.514;1.494;2023-04-24T05:00:21;8.00;;;1.17;;
78873;SDS011;68250;43.514;1.494;2023-04-24T05:02:48;6.40;;;1.10;;
78873;SDS011;68250;43.514;1.494;2023-04-24T05:05:13;6.50;;;1.10;;
78873;SDS011;68250;43.514;1.494;2023-04-24T05:07:39;4.95;;;1.40;;
78873;SDS011;68250;43.514;1.494;2023-04-24T05:10:04;9.13;;;1.43;;
78873;SDS011;68250;43.514;1.494;2023-04-24T05:12:30;9.20;;;1.55;;
78873;SDS011;68250;43.514;1.494;2023-04-24T05:14:56;12.07;;;1.30;;
78873;SDS011;68250;43.514;1.494;2023-04-24T05:17:21;7.60;;;1.33;;
78873;SDS011;68250;43.514;1.494;2023-04-24T05:19:47;8.63;;;1.42;;
78873;SDS011;68250;43.514;1.494;2023-04-24T05:22:13;6.30;;;1.30;;
78873;SDS011;68250;43.514;1.494;2023-04-24T05:24:38;7.20;;;1.23;;
78873;SDS011;68250;43.514;1.494;2023-04-24T05:27:04;8.80;;;1.30;;
78873;SDS011;68250;43.514;1.494;2023-04-24T05:29:30;8.05;;;1.30;;
78873;SDS011;68250;43.514;1.494;2023-04-24T05:31:57;6.80;;;1.25;;
78873;SDS011;68250;43.514;1.494;2023-04-24T05:34:22;6.57;;;1.13;;
78873;SDS011;68250;43.514;1.494;2023-04-24T05:36:48;6.50;;;1.77;;
78873;SDS011;68250;43.514;1.494;2023-04-24T05:39:14;12.73;;;2.90;;
78873;SDS011;68250;43.514;1.494;2023-04-24T05:41:40;8.43;;;1.58;;
78873;SDS011;68250;43.514;1.494;2023-04-24T05:44:05;7.77;;;1.40;;
78873;SDS011;68250;43.514;1.494;2023-04-24T05:46:31;8.60;;;1.50;;
78873;SDS011;68250;43.514;1.494;2023-04-24T05:48:57;9.03;;;1.23;;
78873;SDS011;68250;43.514;1.494;2023-04-24T05:51:23;6.18;;;1.23;;
78873;SDS011;68250;43.514;1.494;2023-04-24T05:53:49;6.63;;;1.40;;
78873;SDS011;68250;43.514;1.494;2023-04-24T05:56:15;10.18;;;1.63;;
78873;SDS011;68250;43.514;1.494;2023-04-24T05:58:41;8.50;;;1.40;;
78873;SDS011;68250;43.514;1.494;2023-04-24T06:01:07;9.07;;;1.45;;
78873;SDS011;68250;43.514;1.494;2023-04-24T06:03:32;7.77;;;1.57;;
78873;SDS011;68250;43.514;1.494;2023-04-24T06:05:58;8.88;;;1.48;;
78873;SDS011;68250;43.514;1.494;2023-04-24T06:08:24;10.03;;;1.57;;
78873;SDS011;68250;43.514;1.494;2023-04-24T06:10:49;12.18;;;1.42;;
78873;SDS011;68250;43.514;1.494;2023-04-24T06:13:15;7.33;;;1.30;;
78873;SDS011;68250;43.514;1.494;2023-04-24T06:15:41;7.82;;;1.50;;
78873;SDS011;68250;43.514;1.494;2023-04-24T06:18:07;7.65;;;1.70;;
78873;SDS011;68250;43.514;1.494;2023-04-24T06:20:35;9.13;;;1.50;;
78873;SDS011;68250;43.514;1.494;2023-04-24T06:23:00;7.82;;;1.13;;
78873;SDS011;68250;43.514;1.494;2023-04-24T06:25:26;7.57;;;1.30;;
78873;SDS011;68250;43.514;1.494;2023-04-24T06:27:52;9.80;;;1.90;;
78873;SDS011;68250;43.514;1.494;2023-04-24T06:30:17;8.83;;;1.83;;
78873;SDS011;68250;43.514;1.494;2023-04-24T06:32:43;7.30;;;1.60;;
78873;SDS011;68250;43.514;1.494;2023-04-24T06:35:08;9.00;;;1.80;;
78873;SDS011;68250;43.514;1.494;2023-04-24T06:37:35;9.00;;;1.90;;
78873;SDS011;68250;43.514;1.494;2023-04-24T06:40:01;8.20;;;1.50;;
78873;SDS011;68250;43.514;1.494;2023-04-24T06:42:26;6.50;;;1.50;;
78873;SDS011;68250;43.514;1.494;2023-04-24T06:44:52;10.00;;;1.70;;
78873;SDS011;68250;43.514;1.494;2023-04-24T06:47:18;10.07;;;1.80;;
78873;SDS011;68250;43.514;1.494;2023-04-24T06:49:44;7.83;;;1.50;;
78873;SDS011;68250;43.514;1.494;2023-04-24T06:52:09;11.75;;;1.85;;
78873;SDS011;68250;43.514;1.494;2023-04-24T06:54:35;9.00;;;1.70;;
78873;SDS011;68250;43.514;1.494;2023-04-24T06:57:00;8.23;;;1.90;;
78873;SDS011;68250;43.514;1.494;2023-04-24T06:59:27;10.32;;;1.50;;
78873;SDS011;68250;43.514;1.494;2023-04-24T07:01:53;7.55;;;1.55;;
78873;SDS011;68250;43.514;1.494;2023-04-24T07:04:19;10.27;;;1.60;;
78873;SDS011;68250;43.514;1.494;2023-04-24T07:06:45;7.32;;;1.20;;
78873;SDS011;68250;43.514;1.494;2023-04-24T07:09:11;8.23;;;1.35;;
78873;SDS011;68250;43.514;1.494;2023-04-24T07:11:38;6.63;;;1.40;;
78873;SDS011;68250;43.514;1.494;2023-04-24T07:14:05;6.68;;;1.30;;
78873;SDS011;68250;43.514;1.494;2023-04-24T07:16:31;8.95;;;1.50;;
78873;SDS011;68250;43.514;1.494;2023-04-24T07:18:57;11.07;;;1.60;;
78873;SDS011;68250;43.514;1.494;2023-04-24T07:21:22;8.50;;;1.50;;
78873;SDS011;68250;43.514;1.494;2023-04-24T07:23:48;11.10;;;1.63;;
78873;SDS011;68250;43.514;1.494;2023-04-24T07:26:13;8.37;;;1.50;;
78873;SDS011;68250;43.514;1.494;2023-04-24T07:28:40;10.30;;;1.35;;
78873;SDS011;68250;43.514;1.494;2023-04-24T07:31:06;9.88;;;1.70;;
78873;SDS011;68250;43.514;1.494;2023-04-24T07:33:32;9.55;;;1.23;;
78873;SDS011;68250;43.514;1.494;2023-04-24T07:35:58;5.83;;;1.47;;
78873;SDS011;68250;43.514;1.494;2023-04-24T07:38:24;10.48;;;1.65;;
78873;SDS011;68250;43.514;1.494;2023-04-24T07:40:50;5.68;;;1.60;;
78873;SDS011;68250;43.514;1.494;2023-04-24T07:43:16;10.30;;;1.60;;
78873;SDS011;68250;43.514;1.494;2023-04-24T07:45:42;9.60;;;1.90;;
78873;SDS011;68250;43.514;1.494;2023-04-24T07:48:08;11.33;;;1.60;;
78873;SDS011;68250;43.514;1.494;2023-04-24T07:50:34;7.72;;;1.30;;
78873;SDS011;68250;43.514;1.494;2023-04-24T07:53:01;6.90;;;0.90;;
78873;SDS011;68250;43.514;1.494;2023-04-24T07:55:27;6.40;;;1.40;;
78873;SDS011;68250;43.514;1.494;2023-04-24T07:57:52;5.00;;;0.80;;
78873;SDS011;68250;43.514;1.494;2023-04-24T08:00:18;5.13;;;0.70;;
78873;SDS011;68250;43.514;1.494;2023-04-24T08:02:44;5.65;;;1.00;;
78873;SDS011;68250;43.514;1.494;2023-04-24T08:05:09;5.00;;;0.80;;
78873;SDS011;68250;43.514;1.494;2023-04-24T08:07:35;5.73;;;0.70;;
78873;SDS011;68250;43.514;1.494;2023-04-24T08:10:01;5.70;;;0.70;;
78873;SDS011;68250;43.514;1.494;2023-04-24T08:12:28;4.80;;;0.55;;
78873;SDS011;68250;43.514;1.494;2023-04-24T08:14:54;4.93;;;0.75;;
78873;SDS011;68250;43.514;1.494;2023-04-24T08:17:20;5.22;;;0.73;;
78873;SDS011;68250;43.514;1.494;2023-04-24T08:19:46;3.08;;;0.57;;
78873;SDS011;68250;43.514;1.494;2023-04-24T08:22:16;14.32;;;1.17;;
78873;SDS011;68250;43.514;1.494;2023-04-24T08:24:42;3.35;;;0.70;;
78873;SDS011;68250;43.514;1.494;2023-04-24T08:27:09;6.10;;;0.80;;
78873;SDS011;68250;43.514;1.494;2023-04-24T08:29:35;6.93;;;0.77;;
78873;SDS011;68250;43.514;1.494;2023-04-24T08:32:01;4.95;;;0.70;;
78873;SDS011;68250;43.514;1.494;2023-04-24T08:34:27;6.40;;;0.73;;
78873;SDS011;68250;43.514;1.494;2023-04-24T08:36:52;4.45;;;0.70;;
78873;SDS011;68250;43.514;1.494;2023-04-24T08:39:18;5.70;;;0.80;;
78873;SDS011;68250;43.514;1.494;2023-04-24T08:41:43;5.70;;;0.83;;
78873;SDS011;68250;43.514;1.494;2023-04-24T08:44:10;5.45;;;1.00;;
78873;SDS011;68250;43.514;1.494;2023-04-24T08:46:36;5.25;;;0.90;;
78873;SDS011;68250;43.514;1.494;2023-04-24T08:49:02;5.90;;;1.00;;
78873;SDS011;68250;43.514;1.494;2023-04-24T08:51:29;6.78;;;0.90;;
78873;SDS011;68250;43.514;1.494;2023-04-24T08:53:55;4.03;;;0.82;;
78873;SDS011;68250;43.514;1.494;2023-04-24T08:56:22;6.22;;;0.60;;
78873;SDS011;68250;43.514;1.494;2023-04-24T08:58:49;5.80;;;0.60;;
78873;SDS011;68250;43.514;1.494;2023-04-24T09:01:16;4.85;;;0.77;;
78873;SDS011;68250;43.514;1.494;2023-04-24T09:03:42;4.20;;;0.52;;
78873;SDS011;68250;43.514;1.494;2023-04-24T09:06:08;5.00;;;0.70;;
78873;SDS011;68250;43.514;1.494;2023-04-24T09:08:35;7.35;;;0.70;;
78873;SDS011;68250;43.514;1.494;2023-04-24T09:11:01;4.60;;;0.70;;
78873;SDS011;68250;43.514;1.494;2023-04-24T09:13:28;5.15;;;0.60;;
78873;SDS011;68250;43.514;1.494;2023-04-24T09:15:53;6.63;;;1.02;;
78873;SDS011;68250;43.514;1.494;2023-04-24T09:18:19;4.73;;;0.77;;
78873;SDS011;68250;43.514;1.494;2023-04-24T09:20:58;4.95;;;0.50;;
78873;SDS011;68250;43.514;1.494;2023-04-24T09:23:33;4.00;;;0.60;;
78873;SDS011;68250;43.514;1.494;2023-04-24T09:25:59;5.63;;;1.20;;
78873;SDS011;68250;43.514;1.494;2023-04-24T09:28:27;5.20;;;0.73;;
78873;SDS011;68250;43.514;1.494;2023-04-24T09:31:08;4.00;;;0.52;;
78873;SDS011;68250;43.514;1.494;2023-04-24T09:33:35;5.65;;;0.50;;
78873;SDS011;68250;43.514;1.494;2023-04-24T09:36:01;14.50;;;1.50;;
78873;SDS011;68250;43.514;1.494;2023-04-24T09:38:34;5.23;;;0.40;;
78873;SDS011;68250;43.514;1.494;2023-04-24T09:41:05;3.60;;;0.50;;
78873;SDS011;68250;43.514;1.494;2023-04-24T09:43:32;3.95;;;0.55;;
78873;SDS011;68250;43.514;1.494;2023-04-24T09:45:59;3.10;;;0.50;;
78873;SDS011;68250;43.514;1.494;2023-04-24T09:48:32;3.97;;;0.52;;
78873;SDS011;68250;43.514;1.494;2023-04-24T09:50:59;4.50;;;0.37;;
78873;SDS011;68250;43.514;1.494;2023-04-24T09:53:26;4.53;;;0.90;;
78873;SDS011;68250;43.514;1.494;2023-04-24T09:55:52;5.20;;;0.57;;
78873;SDS011;68250;43.514;1.494;2023-04-24T09:58:21;5.10;;;0.70;;
78873;SDS011;68250;43.514;1.494;2023-04-24T10:00:51;4.25;;;0.68;;
78873;SDS011;68250;43.514;1.494;2023-04-24T10:03:18;5.88;;;0.70;;
78873;SDS011;68250;43.514;1.494;2023-04-24T10:05:45;4.72;;;0.60;;
78873;SDS011;68250;43.514;1.494;2023-04-24T10:08:11;4.73;;;0.53;;
78873;SDS011;68250;43.514;1.494;2023-04-24T10:10:39;3.92;;;0.40;;
78873;SDS011;68250;43.514;1.494;2023-04-24T10:13:10;4.78;;;0.52;;
78873;SDS011;68250;43.514;1.494;2023-04-24T10:15:36;7.32;;;0.65;;
78873;SDS011;68250;43.514;1.494;2023-04-24T10:18:04;3.20;;;0.40;;
78873;SDS011;68250;43.514;1.494;2023-04-24T10:20:31;3.57;;;0.67;;
78873;SDS011;68250;43.514;1.494;2023-04-24T10:22:58;4.13;;;0.50;;
78873;SDS011;68250;43.514;1.494;2023-04-24T10:25:25;5.00;;;0.65;;
78873;SDS011;68250;43.514;1.494;2023-04-24T10:27:55;4.75;;;0.68;;
78873;SDS011;68250;43.514;1.494;2023-04-24T10:30:24;5.20;;;0.95;;
78873;SDS011;68250;43.514;1.494;2023-04-24T10:32:54;5.80;;;1.87;;
78873;SDS011;68250;43.514;1.494;2023-04-24T10:35:19;6.28;;;0.63;;
78873;SDS011;68250;43.514;1.494;2023-04-24T10:40:27;5.90;;;0.70;;
78873;SDS011;68250;43.514;1.494;2023-04-24T10:42:56;5.90;;;0.80;;
78873;SDS011;68250;43.514;1.494;2023-04-24T10:45:22;4.57;;;0.60;;
78873;SDS011;68250;43.514;1.494;2023-04-24T10:47:52;4.20;;;0.50;;
78873;SDS011;68250;43.514;1.494;2023-04-24T10:50:18;4.50;;;0.68;;
78873;SDS011;68250;43.514;1.494;2023-04-24T10:52:44;4.40;;;0.50;;
78873;SDS011;68250;43.514;1.494;2023-04-24T10:55:14;4.43;;;0.50;;
78873;SDS011;68250;43.514;1.494;2023-04-24T10:57:40;3.35;;;0.50;;
78873;SDS011;68250;43.514;1.494;2023-04-24T11:00:26;3.95;;;0.60;;
78873;SDS011;68250;43.514;1.494;2023-04-24T11:02:52;3.67;;;0.60;;
78873;SDS011;68250;43.514;1.494;2023-04-24T11:05:18;5.10;;;0.80;;
78873;SDS011;68250;43.514;1.494;2023-04-24T11:10:54;4.03;;;0.40;;
78873;SDS011;68250;43.514;1.494;2023-04-24T11:13:24;2.75;;;0.30;;
78873;SDS011;68250;43.514;1.494;2023-04-24T11:18:44;5.78;;;0.70;;
78873;SDS011;68250;43.514;1.494;2023-04-24T11:21:18;5.63;;;0.63;;
78873;SDS011;68250;43.514;1.494;2023-04-24T11:23:47;4.07;;;0.70;;
78873;SDS011;68250;43.514;1.494;2023-04-24T11:26:13;4.45;;;0.60;;
78873;SDS011;68250;43.514;1.494;2023-04-24T11:28:44;3.85;;;0.63;;
78873;SDS011;68250;43.514;1.494;2023-04-24T11:34:06;6.15;;;0.50;;
78873;SDS011;68250;43.514;1.494;2023-04-24T11:36:39;3.47;;;0.53;;
78873;SDS011;68250;43.514;1.494;2023-04-24T11:39:05;4.75;;;0.77;;
78873;SDS011;68250;43.514;1.494;2023-04-24T11:41:31;4.25;;;0.73;;
78873;SDS011;68250;43.514;1.494;2023-04-24T11:43:58;4.35;;;0.77;;
78873;SDS011;68250;43.514;1.494;2023-04-24T11:46:27;5.77;;;0.60;;
78873;SDS011;68250;43.514;1.494;2023-04-24T11:48:53;4.47;;;0.60;;
78873;SDS011;68250;43.514;1.494;2023-04-24T11:51:19;5.53;;;0.40;;
78873;SDS011;68250;43.514;1.494;2023-04-24T11:53:45;3.58;;;0.40;;
78873;SDS011;68250;43.514;1.494;2023-04-24T11:56:10;3.53;;;0.50;;
78873;SDS011;68250;43.514;1.494;2023-04-24T11:58:37;5.30;;;0.63;;
78873;SDS011;68250;43.514;1.494;2023-04-24T12:01:03;5.13;;;1.02;;
78873;SDS011;68250;43.514;1.494;2023-04-24T12:03:30;6.93;;;0.68;;
78873;SDS011;68250;43.514;1.494;2023-04-24T12:06:05;4.10;;;0.60;;
78873;SDS011;68250;43.514;1.494;2023-04-24T12:08:34;3.57;;;0.57;;
78873;SDS011;68250;43.514;1.494;2023-04-24T12:11:01;4.93;;;0.50;;
78873;SDS011;68250;43.514;1.494;2023-04-24T12:13:27;4.28;;;0.50;;
78873;SDS011;68250;43.514;1.494;2023-04-24T12:15:52;6.33;;;0.60;;
78873;SDS011;68250;43.514;1.494;2023-04-24T12:18:18;9.60;;;0.70;;
78873;SDS011;68250;43.514;1.494;2023-04-24T12:20:44;3.80;;;0.60;;
78873;SDS011;68250;43.514;1.494;2023-04-24T12:23:09;3.10;;;0.47;;
78873;SDS011;68250;43.514;1.494;2023-04-24T12:25:35;4.70;;;0.53;;
78873;SDS011;68250;43.514;1.494;2023-04-24T12:30:33;3.53;;;0.60;;
78873;SDS011;68250;43.514;1.494;2023-04-24T12:33:00;4.18;;;0.70;;
78873;SDS011;68250;43.514;1.494;2023-04-24T12:35:27;5.90;;;0.88;;
78873;SDS011;68250;43.514;1.494;2023-04-24T12:37:53;3.33;;;0.50;;
78873;SDS011;68250;43.514;1.494;2023-04-24T12:40:20;4.63;;;0.50;;
78873;SDS011;68250;43.514;1.494;2023-04-24T12:42:47;4.75;;;0.60;;
78873;SDS011;68250;43.514;1.494;2023-04-24T12:45:14;4.85;;;0.80;;
78873;SDS011;68250;43.514;1.494;2023-04-24T12:47:41;5.60;;;0.95;;
78873;SDS011;68250;43.514;1.494;2023-04-24T12:50:09;5.50;;;0.60;;
78873;SDS011;68250;43.514;1.494;2023-04-24T12:52:35;8.15;;;1.20;;
78873;SDS011;68250;43.514;1.494;2023-04-24T12:55:01;4.35;;;0.65;;
78873;SDS011;68250;43.514;1.494;2023-04-24T12:57:28;6.05;;;0.70;;
78873;SDS011;68250;43.514;1.494;2023-04-24T12:59:55;5.87;;;1.00;;
78873;SDS011;68250;43.514;1.494;2023-04-24T13:02:22;4.07;;;0.70;;
78873;SDS011;68250;43.514;1.494;2023-04-24T13:04:48;4.03;;;0.75;;
78873;SDS011;68250;43.514;1.494;2023-04-24T13:07:14;3.30;;;0.75;;
78873;SDS011;68250;43.514;1.494;2023-04-24T13:09:40;5.60;;;1.00;;
78873;SDS011;68250;43.514;1.494;2023-04-24T13:12:06;5.95;;;1.02;;
78873;SDS011;68250;43.514;1.494;2023-04-24T13:14:32;5.25;;;0.93;;
78873;SDS011;68250;43.514;1.494;2023-04-24T13:16:58;6.25;;;0.90;;
78873;SDS011;68250;43.514;1.494;2023-04-24T13:19:27;5.80;;;0.80;;
78873;SDS011;68250;43.514;1.494;2023-04-24T13:21:53;5.78;;;0.73;;
78873;SDS011;68250;43.514;1.494;2023-04-24T13:24:21;3.65;;;0.82;;
78873;SDS011;68250;43.514;1.494;2023-04-24T13:26:50;6.38;;;0.90;;
78873;SDS011;68250;43.514;1.494;2023-04-24T13:29:16;4.17;;;0.80;;
78873;SDS011;68250;43.514;1.494;2023-04-24T13:31:41;4.43;;;0.70;;
78873;SDS011;68250;43.514;1.494;2023-04-24T13:34:07;5.70;;;0.90;;
78873;SDS011;68250;43.514;1.494;2023-04-24T13:36:33;4.00;;;0.90;;
78873;SDS011;68250;43.514;1.494;2023-04-24T13:38:58;4.60;;;0.80;;
78873;SDS011;68250;43.514;1.494;2023-04-24T13:41:24;5.20;;;0.70;;
78873;SDS011;68250;43.514;1.494;2023-04-24T13:43:49;5.18;;;0.90;;
78873;SDS011;68250;43.514;1.494;2023-04-24T13:46:15;3.40;;;0.77;;
78873;SDS011;68250;43.514;1.494;2023-04-24T13:48:41;4.95;;;0.80;;
78873;SDS011;68250;43.514;1.494;2023-04-24T13:51:07;3.80;;;0.70;;
78873;SDS011;68250;43.514;1.494;2023-04-24T13:53:32;3.75;;;0.60;;
78873;SDS011;68250;43.514;1.494;2023-04-24T13:56:01;5.15;;;0.90;;
78873;SDS011;68250;43.514;1.494;2023-04-24T13:58:27;5.83;;;0.70;;
78873;SDS011;68250;43.514;1.494;2023-04-24T14:00:52;7.13;;;0.70;;
78873;SDS011;68250;43.514;1.494;2023-04-24T14:03:18;2.80;;;0.60;;
78873;SDS011;68250;43.514;1.494;2023-04-24T14:05:44;5.55;;;1.02;;
78873;SDS011;68250;43.514;1.494;2023-04-24T14:08:09;4.40;;;0.80;;
78873;SDS011;68250;43.514;1.494;2023-04-24T14:10:35;6.80;;;0.90;;
78873;SDS011;68250;43.514;1.494;2023-04-24T14:13:00;6.18;;;0.90;;
78873;SDS011;68250;43.514;1.494;2023-04-24T14:15:26;6.13;;;0.77;;
78873;SDS011;68250;43.514;1.494;2023-04-24T14:17:52;6.03;;;0.90;;
78873;SDS011;68250;43.514;1.494;2023-04-24T14:20:17;3.73;;;0.67;;
78873;SDS011;68250;43.514;1.494;2023-04-24T14:22:43;4.93;;;0.87;;
78873;SDS011;68250;43.514;1.494;2023-04-24T14:25:08;5.88;;;1.08;;
78873;SDS011;68250;43.514;1.494;2023-04-24T14:27:34;4.30;;;0.90;;
78873;SDS011;68250;43.514;1.494;2023-04-24T14:30:00;6.60;;;0.90;;
78873;SDS011;68250;43.514;1.494;2023-04-24T14:32:26;7.80;;;1.93;;
78873;SDS011;68250;43.514;1.494;2023-04-24T14:34:51;5.15;;;0.88;;
78873;SDS011;68250;43.514;1.494;2023-04-24T14:37:17;11.13;;;1.57;;
78873;SDS011;68250;43.514;1.494;2023-04-24T14:39:42;7.23;;;0.87;;
78873;SDS011;68250;43.514;1.494;2023-04-24T14:42:08;4.80;;;0.77;;
78873;SDS011;68250;43.514;1.494;2023-04-24T14:44:34;4.87;;;1.00;;
78873;SDS011;68250;43.514;1.494;2023-04-24T14:46:59;6.45;;;0.90;;
78873;SDS011;68250;43.514;1.494;2023-04-24T14:49:25;4.07;;;0.70;;
78873;SDS011;68250;43.514;1.494;2023-04-24T14:51:51;3.38;;;0.60;;
78873;SDS011;68250;43.514;1.494;2023-04-24T14:54:17;7.30;;;1.20;;